sensor_id;sensor_type;location;lat;lon;timestamp;temperature;humidity
2867;DHT22;1441;48.886;8.728;2024-03-29T00:01:49;7.40;79.20
2867;DHT22;1441;48.886;8.728;2024-03-29T00:04:15;7.40;78.90
2867;DHT22;1441;48.886;8.728;2024-03-29T00:06:40;7.40;78.90
2867;DHT22;1441;48.886;8.728;2024-03-29T00:09:06;7.40;78.70
2867;DHT22;1441;48.886;8.728;2024-03-29T00:11:31;7.40;78.80
2867;DHT22;1441;48.886;8.728;2024-03-29T00:13:57;7.40;78.90
2867;DHT22;1441;48.886;8.728;2024-03-29T00:16:23;7.40;78.70
2867;DHT22;1441;48.886;8.728;2024-03-29T00:18:53;7.40;78.60
2867;DHT22;1441;48.886;8.728;2024-03-29T00:21:19;7.40;78.80
2867;DHT22;1441;48.886;8.728;2024-03-29T00:23:45;7.30;78.70
2867;DHT22;1441;48.886;8.728;2024-03-29T00:26:11;7.30;78.80
2867;DHT22;1441;48.886;8.728;2024-03-29T00:28:37;7.30;78.90
2867;DHT22;1441;48.886;8.728;2024-03-29T00:31:03;7.30;78.90
2867;DHT22;1441;48.886;8.728;2024-03-29T00:33:29;7.30;78.90
2867;DHT22;1441;48.886;8.728;2024-03-29T00:35:55;7.30;78.80
2867;DHT22;1441;48.886;8.728;2024-03-29T00:38:21;7.30;78.90
2867;DHT22;1441;48.886;8.728;2024-03-29T00:40:47;7.30;79.10
2867;DHT22;1441;48.886;8.728;2024-03-29T00:43:12;7.30;79.20
2867;DHT22;1441;48.886;8.728;2024-03-29T00:45:38;7.30;79.30
2867;DHT22;1441;48.886;8.728;2024-03-29T00:48:03;7.30;79.50
2867;DHT22;1441;48.886;8.728;2024-03-29T00:50:29;7.30;79.30
2867;DHT22;1441;48.886;8.728;2024-03-29T00:52:55;7.30;79.30
2867;DHT22;1441;48.886;8.728;2024-03-29T00:55:20;7.30;79.40
2867;DHT22;1441;48.886;8.728;2024-03-29T00:57:46;7.30;79.60
2867;DHT22;1441;48.886;8.728;2024-03-29T01:00:12;7.30;79.40
2867;DHT22;1441;48.886;8.728;2024-03-29T01:02:37;7.30;79.30
2867;DHT22;1441;48.886;8.728;2024-03-29T01:05:03;7.30;79.80
2867;DHT22;1441;48.886;8.728;2024-03-29T01:07:29;7.30;79.80
2867;DHT22;1441;48.886;8.728;2024-03-29T01:09:54;7.30;79.90
2867;DHT22;1441;48.886;8.728;2024-03-29T01:12:20;7.30;79.90
2867;DHT22;1441;48.886;8.728;2024-03-29T01:14:46;7.30;79.70
2867;DHT22;1441;48.886;8.728;2024-03-29T01:17:11;7.20;80.00
2867;DHT22;1441;48.886;8.728;2024-03-29T01:19:37;7.20;79.90
2867;DHT22;1441;48.886;8.728;2024-03-29T01:22:03;7.20;80.00
2867;DHT22;1441;48.886;8.728;2024-03-29T01:24:29;7.30;80.00
2867;DHT22;1441;48.886;8.728;2024-03-29T01:26:55;7.30;79.90
2867;DHT22;1441;48.886;8.728;2024-03-29T01:29:20;7.30;80.10
2867;DHT22;1441;48.886;8.728;2024-03-29T01:31:46;7.30;80.20
2867;DHT22;1441;48.886;8.728;2024-03-29T01:34:11;7.30;80.20
2867;DHT22;1441;48.886;8.728;2024-03-29T01:36:37;7.30;80.20
2867;DHT22;1441;48.886;8.728;2024-03-29T01:39:02;7.30;80.40
2867;DHT22;1441;48.886;8.728;2024-03-29T01:41:29;7.30;80.20
2867;DHT22;1441;48.886;8.728;2024-03-29T01:43:54;7.30;80.30
2867;DHT22;1441;48.886;8.728;2024-03-29T01:46:24;7.30;80.10
2867;DHT22;1441;48.886;8.728;2024-03-29T01:48:51;7.30;80.20
2867;DHT22;1441;48.886;8.728;2024-03-29T01:51:17;7.30;80.20
2867;DHT22;1441;48.886;8.728;2024-03-29T01:53:44;7.20;80.70
2867;DHT22;1441;48.886;8.728;2024-03-29T01:56:10;7.20;80.70
2867;DHT22;1441;48.886;8.728;2024-03-29T01:58:37;7.20;80.80
2867;DHT22;1441;48.886;8.728;2024-03-29T02:01:04;7.30;80.80
2867;DHT22;1441;48.886;8.728;2024-03-29T02:03:31;7.20;80.90
2867;DHT22;1441;48.886;8.728;2024-03-29T02:05:57;7.20;81.10
2867;DHT22;1441;48.886;8.728;2024-03-29T02:08:24;7.20;81.10
2867;DHT22;1441;48.886;8.728;2024-03-29T02:10:50;7.20;81.30
2867;DHT22;1441;48.886;8.728;2024-03-29T02:13:16;7.20;81.20
2867;DHT22;1441;48.886;8.728;2024-03-29T02:15:42;7.30;81.30
2867;DHT22;1441;48.886;8.728;2024-03-29T02:18:08;7.30;81.40
2867;DHT22;1441;48.886;8.728;2024-03-29T02:20:34;7.30;81.40
2867;DHT22;1441;48.886;8.728;2024-03-29T02:23:19;7.30;81.20
2867;DHT22;1441;48.886;8.728;2024-03-29T02:25:45;7.30;81.10
2867;DHT22;1441;48.886;8.728;2024-03-29T02:28:13;7.40;81.00
2867;DHT22;1441;48.886;8.728;2024-03-29T02:30:38;7.40;81.00
2867;DHT22;1441;48.886;8.728;2024-03-29T02:33:04;7.50;80.80
2867;DHT22;1441;48.886;8.728;2024-03-29T02:35:30;7.40;80.90
2867;DHT22;1441;48.886;8.728;2024-03-29T02:37:56;7.50;80.90
2867;DHT22;1441;48.886;8.728;2024-03-29T02:40:22;7.50;81.00
2867;DHT22;1441;48.886;8.728;2024-03-29T02:42:48;7.50;80.90
2867;DHT22;1441;48.886;8.728;2024-03-29T02:45:15;7.50;80.80
2867;DHT22;1441;48.886;8.728;2024-03-29T02:47:40;7.60;80.70
2867;DHT22;1441;48.886;8.728;2024-03-29T02:50:08;7.60;80.60
2867;DHT22;1441;48.886;8.728;2024-03-29T02:52:34;7.50;80.70
2867;DHT22;1441;48.886;8.728;2024-03-29T02:55:00;7.60;80.90
2867;DHT22;1441;48.886;8.728;2024-03-29T02:57:25;7.60;80.90
2867;DHT22;1441;48.886;8.728;2024-03-29T02:59:51;7.50;80.90
2867;DHT22;1441;48.886;8.728;2024-03-29T03:02:16;7.50;81.00
2867;DHT22;1441;48.886;8.728;2024-03-29T03:04:42;7.50;81.00
2867;DHT22;1441;48.886;8.728;2024-03-29T03:07:07;7.60;80.60
2867;DHT22;1441;48.886;8.728;2024-03-29T03:09:52;7.60;80.60
2867;DHT22;1441;48.886;8.728;2024-03-29T03:12:36;7.70;80.30
2867;DHT22;1441;48.886;8.728;2024-03-29T03:15:01;7.80;80.20
2867;DHT22;1441;48.886;8.728;2024-03-29T03:17:28;7.80;80.00
2867;DHT22;1441;48.886;8.728;2024-03-29T03:19:53;7.90;80.20
2867;DHT22;1441;48.886;8.728;2024-03-29T03:22:19;7.90;81.10
2867;DHT22;1441;48.886;8.728;2024-03-29T03:24:45;7.90;80.60
2867;DHT22;1441;48.886;8.728;2024-03-29T03:27:10;8.00;80.40
2867;DHT22;1441;48.886;8.728;2024-03-29T03:29:36;8.10;80.90
2867;DHT22;1441;48.886;8.728;2024-03-29T03:32:02;8.30;81.60
2867;DHT22;1441;48.886;8.728;2024-03-29T03:34:27;8.40;80.10
2867;DHT22;1441;48.886;8.728;2024-03-29T03:36:53;8.50;80.90
2867;DHT22;1441;48.886;8.728;2024-03-29T03:39:19;8.60;80.80
2867;DHT22;1441;48.886;8.728;2024-03-29T03:41:44;8.60;81.20
2867;DHT22;1441;48.886;8.728;2024-03-29T03:44:10;8.50;80.80
2867;DHT22;1441;48.886;8.728;2024-03-29T03:46:35;8.60;80.00
2867;DHT22;1441;48.886;8.728;2024-03-29T03:49:01;8.60;79.30
2867;DHT22;1441;48.886;8.728;2024-03-29T03:51:26;8.60;78.80
2867;DHT22;1441;48.886;8.728;2024-03-29T03:53:53;8.70;78.50
2867;DHT22;1441;48.886;8.728;2024-03-29T03:56:19;8.70;77.70
2867;DHT22;1441;48.886;8.728;2024-03-29T03:58:45;8.80;78.20
2867;DHT22;1441;48.886;8.728;2024-03-29T04:01:10;8.80;77.60
2867;DHT22;1441;48.886;8.728;2024-03-29T04:03:36;8.80;77.80
2867;DHT22;1441;48.886;8.728;2024-03-29T04:06:07;8.80;78.60
2867;DHT22;1441;48.886;8.728;2024-03-29T04:08:33;8.80;78.00
2867;DHT22;1441;48.886;8.728;2024-03-29T04:11:02;8.80;79.40
2867;DHT22;1441;48.886;8.728;2024-03-29T04:13:28;8.80;78.30
2867;DHT22;1441;48.886;8.728;2024-03-29T04:16:01;8.80;79.10
2867;DHT22;1441;48.886;8.728;2024-03-29T04:18:26;8.70;80.10
2867;DHT22;1441;48.886;8.728;2024-03-29T04:21:02;8.40;82.50
2867;DHT22;1441;48.886;8.728;2024-03-29T04:23:28;8.20;82.70
2867;DHT22;1441;48.886;8.728;2024-03-29T04:25:58;8.40;81.30
2867;DHT22;1441;48.886;8.728;2024-03-29T04:28:25;8.30;81.60
2867;DHT22;1441;48.886;8.728;2024-03-29T04:30:55;8.20;82.60
2867;DHT22;1441;48.886;8.728;2024-03-29T04:33:20;8.10;83.10
2867;DHT22;1441;48.886;8.728;2024-03-29T04:35:57;8.00;84.80
2867;DHT22;1441;48.886;8.728;2024-03-29T04:38:23;8.00;84.70
2867;DHT22;1441;48.886;8.728;2024-03-29T04:40:51;8.00;84.20
2867;DHT22;1441;48.886;8.728;2024-03-29T04:43:17;8.10;83.40
2867;DHT22;1441;48.886;8.728;2024-03-29T04:45:46;8.10;82.50
2867;DHT22;1441;48.886;8.728;2024-03-29T04:48:12;8.10;82.20
2867;DHT22;1441;48.886;8.728;2024-03-29T04:50:39;8.20;82.10
2867;DHT22;1441;48.886;8.728;2024-03-29T04:53:04;8.20;81.00
2867;DHT22;1441;48.886;8.728;2024-03-29T04:55:30;8.30;80.00
2867;DHT22;1441;48.886;8.728;2024-03-29T04:57:56;8.40;79.60
2867;DHT22;1441;48.886;8.728;2024-03-29T05:00:21;8.50;79.00
2867;DHT22;1441;48.886;8.728;2024-03-29T05:02:47;8.50;78.90
2867;DHT22;1441;48.886;8.728;2024-03-29T05:05:13;8.50;78.90
2867;DHT22;1441;48.886;8.728;2024-03-29T05:07:39;8.50;79.20
2867;DHT22;1441;48.886;8.728;2024-03-29T05:10:04;8.50;78.80
2867;DHT22;1441;48.886;8.728;2024-03-29T05:12:32;8.40;79.20
2867;DHT22;1441;48.886;8.728;2024-03-29T05:14:58;8.30;79.30
2867;DHT22;1441;48.886;8.728;2024-03-29T05:17:24;8.30;79.90
2867;DHT22;1441;48.886;8.728;2024-03-29T05:19:55;8.40;79.80
2867;DHT22;1441;48.886;8.728;2024-03-29T05:22:21;8.30;79.90
2867;DHT22;1441;48.886;8.728;2024-03-29T05:24:47;8.30;79.20
2867;DHT22;1441;48.886;8.728;2024-03-29T05:27:12;8.40;79.30
2867;DHT22;1441;48.886;8.728;2024-03-29T05:29:38;8.40;79.00
2867;DHT22;1441;48.886;8.728;2024-03-29T05:32:04;8.40;78.50
2867;DHT22;1441;48.886;8.728;2024-03-29T05:34:30;8.40;78.60
2867;DHT22;1441;48.886;8.728;2024-03-29T05:36:56;8.40;78.40
2867;DHT22;1441;48.886;8.728;2024-03-29T05:39:21;8.50;78.30
2867;DHT22;1441;48.886;8.728;2024-03-29T05:41:47;8.50;78.10
2867;DHT22;1441;48.886;8.728;2024-03-29T05:44:13;8.50;77.20
2867;DHT22;1441;48.886;8.728;2024-03-29T05:46:38;8.60;77.40
2867;DHT22;1441;48.886;8.728;2024-03-29T05:49:05;8.60;76.80
2867;DHT22;1441;48.886;8.728;2024-03-29T05:51:31;8.70;76.50
2867;DHT22;1441;48.886;8.728;2024-03-29T05:53:57;8.70;76.40
2867;DHT22;1441;48.886;8.728;2024-03-29T05:56:22;8.80;76.00
2867;DHT22;1441;48.886;8.728;2024-03-29T05:58:48;8.90;75.30
2867;DHT22;1441;48.886;8.728;2024-03-29T06:01:13;8.90;75.10
2867;DHT22;1441;48.886;8.728;2024-03-29T06:03:39;9.00;74.80
2867;DHT22;1441;48.886;8.728;2024-03-29T06:06:07;9.10;74.20
2867;DHT22;1441;48.886;8.728;2024-03-29T06:08:33;9.20;73.50
2867;DHT22;1441;48.886;8.728;2024-03-29T06:10:58;9.30;73.50
2867;DHT22;1441;48.886;8.728;2024-03-29T06:13:25;9.30;73.40
2867;DHT22;1441;48.886;8.728;2024-03-29T06:16:13;9.50;72.90
2867;DHT22;1441;48.886;8.728;2024-03-29T06:18:57;9.60;72.10
2867;DHT22;1441;48.886;8.728;2024-03-29T06:21:22;9.70;71.90
2867;DHT22;1441;48.886;8.728;2024-03-29T06:23:48;9.80;71.80
2867;DHT22;1441;48.886;8.728;2024-03-29T06:26:14;9.80;71.70
2867;DHT22;1441;48.886;8.728;2024-03-29T06:28:39;9.80;71.40
2867;DHT22;1441;48.886;8.728;2024-03-29T06:31:05;9.90;70.70
2867;DHT22;1441;48.886;8.728;2024-03-29T06:33:30;10.00;70.40
2867;DHT22;1441;48.886;8.728;2024-03-29T06:35:56;10.10;70.20
2867;DHT22;1441;48.886;8.728;2024-03-29T06:38:21;10.10;70.30
2867;DHT22;1441;48.886;8.728;2024-03-29T06:40:47;10.20;70.10
2867;DHT22;1441;48.886;8.728;2024-03-29T06:43:13;10.20;70.20
2867;DHT22;1441;48.886;8.728;2024-03-29T06:45:42;10.30;70.30
2867;DHT22;1441;48.886;8.728;2024-03-29T06:48:11;10.50;69.80
2867;DHT22;1441;48.886;8.728;2024-03-29T06:50:37;10.70;69.40
2867;DHT22;1441;48.886;8.728;2024-03-29T06:53:03;11.30;68.50
2867;DHT22;1441;48.886;8.728;2024-03-29T06:55:30;11.70;67.40
2867;DHT22;1441;48.886;8.728;2024-03-29T06:57:56;12.20;66.20
2867;DHT22;1441;48.886;8.728;2024-03-29T07:00:21;12.30;65.60
2867;DHT22;1441;48.886;8.728;2024-03-29T07:02:47;12.10;65.70
2867;DHT22;1441;48.886;8.728;2024-03-29T07:05:12;11.60;66.80
2867;DHT22;1441;48.886;8.728;2024-03-29T07:07:38;11.30;67.60
2867;DHT22;1441;48.886;8.728;2024-03-29T07:10:06;11.20;67.90
2867;DHT22;1441;48.886;8.728;2024-03-29T07:12:31;11.10;68.50
2867;DHT22;1441;48.886;8.728;2024-03-29T07:14:57;11.00;69.00
2867;DHT22;1441;48.886;8.728;2024-03-29T07:17:22;10.90;69.40
2867;DHT22;1441;48.886;8.728;2024-03-29T07:19:48;10.90;69.80
2867;DHT22;1441;48.886;8.728;2024-03-29T07:22:14;10.80;70.00
2867;DHT22;1441;48.886;8.728;2024-03-29T07:24:39;10.80;70.40
2867;DHT22;1441;48.886;8.728;2024-03-29T07:27:05;10.80;70.70
2867;DHT22;1441;48.886;8.728;2024-03-29T07:29:30;10.80;71.20
2867;DHT22;1441;48.886;8.728;2024-03-29T07:31:59;10.70;72.90
2867;DHT22;1441;48.886;8.728;2024-03-29T07:34:25;10.60;74.40
2867;DHT22;1441;48.886;8.728;2024-03-29T07:36:51;10.60;76.00
2867;DHT22;1441;48.886;8.728;2024-03-29T07:39:16;10.40;79.30
2867;DHT22;1441;48.886;8.728;2024-03-29T07:41:42;10.40;80.60
2867;DHT22;1441;48.886;8.728;2024-03-29T07:44:08;10.20;82.50
2867;DHT22;1441;48.886;8.728;2024-03-29T07:46:35;10.10;83.20
2867;DHT22;1441;48.886;8.728;2024-03-29T07:49:02;10.10;84.70
2867;DHT22;1441;48.886;8.728;2024-03-29T07:51:28;10.00;86.00
2867;DHT22;1441;48.886;8.728;2024-03-29T07:53:54;9.90;87.80
2867;DHT22;1441;48.886;8.728;2024-03-29T07:56:19;9.70;89.30
2867;DHT22;1441;48.886;8.728;2024-03-29T07:58:50;9.60;91.30
2867;DHT22;1441;48.886;8.728;2024-03-29T08:01:20;9.40;94.40
2867;DHT22;1441;48.886;8.728;2024-03-29T08:03:45;9.40;94.10
2867;DHT22;1441;48.886;8.728;2024-03-29T08:06:11;9.40;96.70
2867;DHT22;1441;48.886;8.728;2024-03-29T08:08:37;9.40;98.50
2867;DHT22;1441;48.886;8.728;2024-03-29T08:11:02;9.50;98.70
2867;DHT22;1441;48.886;8.728;2024-03-29T08:13:28;9.70;98.50
2867;DHT22;1441;48.886;8.728;2024-03-29T08:16:00;9.80;99.00
2867;DHT22;1441;48.886;8.728;2024-03-29T08:18:27;10.00;98.60
2867;DHT22;1441;48.886;8.728;2024-03-29T08:20:53;10.00;99.60
2867;DHT22;1441;48.886;8.728;2024-03-29T08:23:22;9.90;99.90
2867;DHT22;1441;48.886;8.728;2024-03-29T08:25:48;9.90;99.90
2867;DHT22;1441;48.886;8.728;2024-03-29T08:28:14;9.60;99.90
2867;DHT22;1441;48.886;8.728;2024-03-29T08:30:40;9.30;99.90
2867;DHT22;1441;48.886;8.728;2024-03-29T08:33:06;8.80;99.90
2867;DHT22;1441;48.886;8.728;2024-03-29T08:35:32;8.50;99.90
2867;DHT22;1441;48.886;8.728;2024-03-29T08:37:58;8.50;99.90
2867;DHT22;1441;48.886;8.728;2024-03-29T08:40:26;8.50;99.90
2867;DHT22;1441;48.886;8.728;2024-03-29T08:42:54;8.40;99.90
2867;DHT22;1441;48.886;8.728;2024-03-29T08:45:20;8.40;99.90
2867;DHT22;1441;48.886;8.728;2024-03-29T08:47:46;8.40;99.90
2867;DHT22;1441;48.886;8.728;2024-03-29T08:50:12;8.30;99.90
2867;DHT22;1441;48.886;8.728;2024-03-29T08:52:39;8.20;99.90
2867;DHT22;1441;48.886;8.728;2024-03-29T08:55:06;8.20;99.90
2867;DHT22;1441;48.886;8.728;2024-03-29T08:57:31;8.20;99.90
2867;DHT22;1441;48.886;8.728;2024-03-29T08:59:58;8.30;99.90
2867;DHT22;1441;48.886;8.728;2024-03-29T09:02:23;8.40;99.90
2867;DHT22;1441;48.886;8.728;2024-03-29T09:04:49;8.40;99.90
2867;DHT22;1441;48.886;8.728;2024-03-29T09:07:14;8.60;99.90
2867;DHT22;1441;48.886;8.728;2024-03-29T09:09:40;8.70;99.90
2867;DHT22;1441;48.886;8.728;2024-03-29T09:12:08;8.90;99.90
2867;DHT22;1441;48.886;8.728;2024-03-29T09:14:33;9.00;99.90
2867;DHT22;1441;48.886;8.728;2024-03-29T09:16:59;9.20;99.90
2867;DHT22;1441;48.886;8.728;2024-03-29T09:19:25;9.30;99.90
2867;DHT22;1441;48.886;8.728;2024-03-29T09:21:51;9.40;99.90
2867;DHT22;1441;48.886;8.728;2024-03-29T09:24:16;9.50;99.90
2867;DHT22;1441;48.886;8.728;2024-03-29T09:26:43;9.70;99.90
2867;DHT22;1441;48.886;8.728;2024-03-29T09:29:08;9.80;99.90
2867;DHT22;1441;48.886;8.728;2024-03-29T09:31:35;9.80;99.90
2867;DHT22;1441;48.886;8.728;2024-03-29T09:34:01;10.00;99.90
2867;DHT22;1441;48.886;8.728;2024-03-29T09:36:26;10.10;99.90
2867;DHT22;1441;48.886;8.728;2024-03-29T09:38:52;10.30;99.90
2867;DHT22;1441;48.886;8.728;2024-03-29T09:41:19;10.30;99.90
2867;DHT22;1441;48.886;8.728;2024-03-29T09:43:46;10.40;99.90
2867;DHT22;1441;48.886;8.728;2024-03-29T09:46:13;10.50;99.90
2867;DHT22;1441;48.886;8.728;2024-03-29T09:48:40;10.50;99.90
2867;DHT22;1441;48.886;8.728;2024-03-29T09:51:07;10.60;99.90
2867;DHT22;1441;48.886;8.728;2024-03-29T09:53:34;10.80;99.90
2867;DHT22;1441;48.886;8.728;2024-03-29T09:56:03;10.80;99.90
2867;DHT22;1441;48.886;8.728;2024-03-29T09:58:31;10.80;99.90
2867;DHT22;1441;48.886;8.728;2024-03-29T10:00:57;10.80;99.90
2867;DHT22;1441;48.886;8.728;2024-03-29T10:03:27;10.90;99.90
2867;DHT22;1441;48.886;8.728;2024-03-29T10:05:57;11.00;99.90
2867;DHT22;1441;48.886;8.728;2024-03-29T10:08:27;11.10;99.90
2867;DHT22;1441;48.886;8.728;2024-03-29T10:10:58;11.10;99.90
2867;DHT22;1441;48.886;8.728;2024-03-29T10:13:24;11.10;99.90
2867;DHT22;1441;48.886;8.728;2024-03-29T10:15:53;11.10;99.90
2867;DHT22;1441;48.886;8.728;2024-03-29T10:18:24;11.20;99.90
2867;DHT22;1441;48.886;8.728;2024-03-29T10:21:07;11.20;99.90
2867;DHT22;1441;48.886;8.728;2024-03-29T10:23:34;11.30;99.90
2867;DHT22;1441;48.886;8.728;2024-03-29T10:26:01;11.10;99.90
2867;DHT22;1441;48.886;8.728;2024-03-29T10:28:34;11.20;99.90
2867;DHT22;1441;48.886;8.728;2024-03-29T10:31:01;11.40;99.90
2867;DHT22;1441;48.886;8.728;2024-03-29T10:33:34;11.50;99.90
2867;DHT22;1441;48.886;8.728;2024-03-29T10:36:01;11.60;99.90
2867;DHT22;1441;48.886;8.728;2024-03-29T10:38:29;11.70;99.90
2867;DHT22;1441;48.886;8.728;2024-03-29T10:40:54;11.70;99.90
2867;DHT22;1441;48.886;8.728;2024-03-29T10:43:20;11.90;99.90
2867;DHT22;1441;48.886;8.728;2024-03-29T10:45:47;12.00;99.90
2867;DHT22;1441;48.886;8.728;2024-03-29T10:48:15;12.20;99.90
2867;DHT22;1441;48.886;8.728;2024-03-29T10:50:42;12.30;99.90
2867;DHT22;1441;48.886;8.728;2024-03-29T10:53:12;12.30;99.90
2867;DHT22;1441;48.886;8.728;2024-03-29T10:55:40;12.50;99.90
2867;DHT22;1441;48.886;8.728;2024-03-29T10:58:07;12.80;99.90
2867;DHT22;1441;48.886;8.728;2024-03-29T11:00:47;13.10;99.90
2867;DHT22;1441;48.886;8.728;2024-03-29T11:03:26;13.20;99.90
2867;DHT22;1441;48.886;8.728;2024-03-29T11:05:59;13.50;99.90
2867;DHT22;1441;48.886;8.728;2024-03-29T11:08:28;13.60;99.90
2867;DHT22;1441;48.886;8.728;2024-03-29T11:10:58;13.60;99.90
2867;DHT22;1441;48.886;8.728;2024-03-29T11:13:33;13.80;99.90
2867;DHT22;1441;48.886;8.728;2024-03-29T11:15:59;14.00;99.90
2867;DHT22;1441;48.886;8.728;2024-03-29T11:18:26;14.40;99.90
2867;DHT22;1441;48.886;8.728;2024-03-29T11:20:53;14.60;99.90
2867;DHT22;1441;48.886;8.728;2024-03-29T11:23:20;14.80;99.90
2867;DHT22;1441;48.886;8.728;2024-03-29T11:25:49;14.70;99.90
2867;DHT22;1441;48.886;8.728;2024-03-29T11:28:23;14.30;99.90
2867;DHT22;1441;48.886;8.728;2024-03-29T11:30:50;14.00;99.90
2867;DHT22;1441;48.886;8.728;2024-03-29T11:33:45;13.80;99.90
2867;DHT22;1441;48.886;8.728;2024-03-29T11:38:39;13.60;99.90
2867;DHT22;1441;48.886;8.728;2024-03-29T11:41:16;13.70;99.90
2867;DHT22;1441;48.886;8.728;2024-03-29T11:43:42;13.70;99.90
2867;DHT22;1441;48.886;8.728;2024-03-29T11:46:10;13.70;99.90
2867;DHT22;1441;48.886;8.728;2024-03-29T11:48:36;13.80;99.90
2867;DHT22;1441;48.886;8.728;2024-03-29T11:51:03;13.80;99.90
2867;DHT22;1441;48.886;8.728;2024-03-29T11:53:30;13.80;99.90
2867;DHT22;1441;48.886;8.728;2024-03-29T11:55:57;13.60;99.90
2867;DHT22;1441;48.886;8.728;2024-03-29T11:58:24;13.50;99.90
2867;DHT22;1441;48.886;8.728;2024-03-29T12:00:51;13.60;99.90
2867;DHT22;1441;48.886;8.728;2024-03-29T12:03:17;13.80;99.90
2867;DHT22;1441;48.886;8.728;2024-03-29T12:05:46;13.90;99.90
2867;DHT22;1441;48.886;8.728;2024-03-29T12:08:12;14.00;99.90
2867;DHT22;1441;48.886;8.728;2024-03-29T12:10:38;14.10;99.90
2867;DHT22;1441;48.886;8.728;2024-03-29T12:13:07;14.20;99.90
2867;DHT22;1441;48.886;8.728;2024-03-29T12:15:34;14.20;99.90
2867;DHT22;1441;48.886;8.728;2024-03-29T12:18:01;14.20;99.90
2867;DHT22;1441;48.886;8.728;2024-03-29T12:20:37;14.10;99.90
2867;DHT22;1441;48.886;8.728;2024-03-29T12:23:08;14.10;99.90
2867;DHT22;1441;48.886;8.728;2024-03-29T12:25:36;14.30;99.90
2867;DHT22;1441;48.886;8.728;2024-03-29T12:28:02;14.40;99.90
2867;DHT22;1441;48.886;8.728;2024-03-29T12:30:29;14.40;99.90
2867;DHT22;1441;48.886;8.728;2024-03-29T12:33:01;14.30;99.90
2867;DHT22;1441;48.886;8.728;2024-03-29T12:35:28;14.20;99.90
2867;DHT22;1441;48.886;8.728;2024-03-29T12:37:55;14.20;99.90
2867;DHT22;1441;48.886;8.728;2024-03-29T12:40:24;14.20;99.90
2867;DHT22;1441;48.886;8.728;2024-03-29T12:42:50;14.10;99.90
2867;DHT22;1441;48.886;8.728;2024-03-29T12:45:18;14.00;99.90
2867;DHT22;1441;48.886;8.728;2024-03-29T12:47:47;13.70;99.90
2867;DHT22;1441;48.886;8.728;2024-03-29T12:50:32;13.70;99.90
2867;DHT22;1441;48.886;8.728;2024-03-29T12:53:02;13.60;99.90
2867;DHT22;1441;48.886;8.728;2024-03-29T12:55:31;13.70;99.90
2867;DHT22;1441;48.886;8.728;2024-03-29T12:57:59;13.80;99.90
2867;DHT22;1441;48.886;8.728;2024-03-29T13:00:26;13.80;99.90
2867;DHT22;1441;48.886;8.728;2024-03-29T13:02:53;13.70;99.90
2867;DHT22;1441;48.886;8.728;2024-03-29T13:05:19;13.50;99.90
2867;DHT22;1441;48.886;8.728;2024-03-29T13:07:45;13.40;99.90
2867;DHT22;1441;48.886;8.728;2024-03-29T13:10:10;13.50;99.90
2867;DHT22;1441;48.886;8.728;2024-03-29T13:12:43;13.50;99.90
2867;DHT22;1441;48.886;8.728;2024-03-29T13:15:23;13.70;99.90
2867;DHT22;1441;48.886;8.728;2024-03-29T13:17:54;13.70;99.90
2867;DHT22;1441;48.886;8.728;2024-03-29T13:20:21;13.60;99.90
2867;DHT22;1441;48.886;8.728;2024-03-29T13:22:47;13.60;99.90
2867;DHT22;1441;48.886;8.728;2024-03-29T13:25:18;13.70;99.90
2867;DHT22;1441;48.886;8.728;2024-03-29T13:27:51;13.70;99.90
2867;DHT22;1441;48.886;8.728;2024-03-29T13:30:25;13.90;99.90
2867;DHT22;1441;48.886;8.728;2024-03-29T13:32:52;14.10;99.90
2867;DHT22;1441;48.886;8.728;2024-03-29T13:35:17;14.30;99.90
2867;DHT22;1441;48.886;8.728;2024-03-29T13:37:47;14.60;99.90
2867;DHT22;1441;48.886;8.728;2024-03-29T13:40:13;14.90;99.90
2867;DHT22;1441;48.886;8.728;2024-03-29T13:42:40;15.10;99.90
2867;DHT22;1441;48.886;8.728;2024-03-29T13:45:06;15.20;99.90
2867;DHT22;1441;48.886;8.728;2024-03-29T13:47:33;15.20;99.90
2867;DHT22;1441;48.886;8.728;2024-03-29T13:49:59;15.10;99.90
2867;DHT22;1441;48.886;8.728;2024-03-29T13:52:25;15.20;99.90
2867;DHT22;1441;48.886;8.728;2024-03-29T13:54:53;15.30;99.90
2867;DHT22;1441;48.886;8.728;2024-03-29T13:57:19;15.10;99.90
2867;DHT22;1441;48.886;8.728;2024-03-29T13:59:45;14.90;99.90
2867;DHT22;1441;48.886;8.728;2024-03-29T14:02:12;14.80;99.90
2867;DHT22;1441;48.886;8.728;2024-03-29T14:04:39;14.70;99.90
2867;DHT22;1441;48.886;8.728;2024-03-29T14:07:04;14.80;99.90
2867;DHT22;1441;48.886;8.728;2024-03-29T14:09:34;14.80;99.90
2867;DHT22;1441;48.886;8.728;2024-03-29T14:12:00;15.10;99.90
2867;DHT22;1441;48.886;8.728;2024-03-29T14:14:26;15.20;99.90
2867;DHT22;1441;48.886;8.728;2024-03-29T14:16:51;15.30;99.90
2867;DHT22;1441;48.886;8.728;2024-03-29T14:19:17;15.40;99.90
2867;DHT22;1441;48.886;8.728;2024-03-29T14:21:42;15.40;99.90
2867;DHT22;1441;48.886;8.728;2024-03-29T14:24:08;15.40;99.90
2867;DHT22;1441;48.886;8.728;2024-03-29T14:26:34;15.30;99.90
2867;DHT22;1441;48.886;8.728;2024-03-29T14:28:59;15.40;99.90
2867;DHT22;1441;48.886;8.728;2024-03-29T14:31:25;15.30;99.90
2867;DHT22;1441;48.886;8.728;2024-03-29T14:33:51;15.30;99.90
2867;DHT22;1441;48.886;8.728;2024-03-29T14:36:16;15.40;99.90
2867;DHT22;1441;48.886;8.728;2024-03-29T14:38:43;15.50;99.90
2867;DHT22;1441;48.886;8.728;2024-03-29T14:41:09;15.70;99.90
2867;DHT22;1441;48.886;8.728;2024-03-29T14:43:36;15.80;99.50
2867;DHT22;1441;48.886;8.728;2024-03-29T14:46:01;15.70;99.90
2867;DHT22;1441;48.886;8.728;2024-03-29T14:48:27;15.50;99.90
2867;DHT22;1441;48.886;8.728;2024-03-29T14:50:52;15.60;99.90
2867;DHT22;1441;48.886;8.728;2024-03-29T14:53:20;15.70;99.90
2867;DHT22;1441;48.886;8.728;2024-03-29T14:55:45;15.80;99.80
2867;DHT22;1441;48.886;8.728;2024-03-29T14:58:11;15.80;99.40
2867;DHT22;1441;48.886;8.728;2024-03-29T15:00:36;15.70;99.90
2867;DHT22;1441;48.886;8.728;2024-03-29T15:03:02;15.60;99.90
2867;DHT22;1441;48.886;8.728;2024-03-29T15:05:29;15.50;99.90
2867;DHT22;1441;48.886;8.728;2024-03-29T15:07:54;15.50;99.90
2867;DHT22;1441;48.886;8.728;2024-03-29T15:10:20;15.50;99.90
2867;DHT22;1441;48.886;8.728;2024-03-29T15:12:47;15.60;99.90
2867;DHT22;1441;48.886;8.728;2024-03-29T15:15:12;15.70;99.90
2867;DHT22;1441;48.886;8.728;2024-03-29T15:17:38;15.80;99.90
2867;DHT22;1441;48.886;8.728;2024-03-29T15:20:05;15.90;98.90
2867;DHT22;1441;48.886;8.728;2024-03-29T15:22:32;16.00;97.60
2867;DHT22;1441;48.886;8.728;2024-03-29T15:24:59;16.10;97.20
2867;DHT22;1441;48.886;8.728;2024-03-29T15:27:25;16.00;97.00
2867;DHT22;1441;48.886;8.728;2024-03-29T15:30:18;15.90;98.00
2867;DHT22;1441;48.886;8.728;2024-03-29T15:32:44;16.00;98.10
2867;DHT22;1441;48.886;8.728;2024-03-29T15:35:09;15.90;98.60
2867;DHT22;1441;48.886;8.728;2024-03-29T15:37:37;15.90;97.50
2867;DHT22;1441;48.886;8.728;2024-03-29T15:40:03;16.00;96.70
2867;DHT22;1441;48.886;8.728;2024-03-29T15:42:28;15.80;97.90
2867;DHT22;1441;48.886;8.728;2024-03-29T15:44:54;15.70;98.80
2867;DHT22;1441;48.886;8.728;2024-03-29T15:47:21;15.60;99.40
2867;DHT22;1441;48.886;8.728;2024-03-29T15:49:46;15.50;99.90
2867;DHT22;1441;48.886;8.728;2024-03-29T15:52:12;15.60;99.20
2867;DHT22;1441;48.886;8.728;2024-03-29T15:54:37;15.50;99.90
2867;DHT22;1441;48.886;8.728;2024-03-29T15:57:03;15.40;99.90
2867;DHT22;1441;48.886;8.728;2024-03-29T15:59:29;15.40;99.90
2867;DHT22;1441;48.886;8.728;2024-03-29T16:01:55;15.50;99.90
2867;DHT22;1441;48.886;8.728;2024-03-29T16:04:20;15.40;99.20
2867;DHT22;1441;48.886;8.728;2024-03-29T16:06:46;15.20;99.90
2867;DHT22;1441;48.886;8.728;2024-03-29T16:09:11;15.20;99.90
2867;DHT22;1441;48.886;8.728;2024-03-29T16:11:37;15.40;99.50